sensor_id;sensor_type;location;lat;lon;timestamp;temperature;humidity
21039;DHT22;10678;51.002;4.786;2023-08-20T00:00:29;21.80;99.90
21039;DHT22;10678;51.002;4.786;2023-08-20T00:03:11;21.80;99.90
21039;DHT22;10678;51.002;4.786;2023-08-20T00:05:38;21.80;99.90
21039;DHT22;10678;51.002;4.786;2023-08-20T00:08:04;21.80;99.90
21039;DHT22;10678;51.002;4.786;2023-08-20T00:10:30;21.70;99.90
21039;DHT22;10678;51.002;4.786;2023-08-20T00:12:56;21.70;99.90
21039;DHT22;10678;51.002;4.786;2023-08-20T00:15:22;21.60;99.90
21039;DHT22;10678;51.002;4.786;2023-08-20T00:17:52;21.70;99.90
21039;DHT22;10678;51.002;4.786;2023-08-20T00:20:19;21.70;99.90
21039;DHT22;10678;51.002;4.786;2023-08-20T00:22:45;21.70;99.90
21039;DHT22;10678;51.002;4.786;2023-08-20T00:25:13;21.70;99.90
21039;DHT22;10678;51.002;4.786;2023-08-20T00:27:39;21.80;99.90
21039;DHT22;10678;51.002;4.786;2023-08-20T00:30:05;21.80;99.90
21039;DHT22;10678;51.002;4.786;2023-08-20T00:32:31;21.80;99.90
21039;DHT22;10678;51.002;4.786;2023-08-20T00:34:57;21.80;99.90
21039;DHT22;10678;51.002;4.786;2023-08-20T00:37:22;21.90;99.90
21039;DHT22;10678;51.002;4.786;2023-08-20T00:39:48;22.00;99.90
21039;DHT22;10678;51.002;4.786;2023-08-20T00:42:14;21.90;99.90
21039;DHT22;10678;51.002;4.786;2023-08-20T00:44:40;22.00;99.90
21039;DHT22;10678;51.002;4.786;2023-08-20T00:47:07;22.00;99.90
21039;DHT22;10678;51.002;4.786;2023-08-20T00:49:34;22.00;99.90
21039;DHT22;10678;51.002;4.786;2023-08-20T00:52:00;22.00;99.90
21039;DHT22;10678;51.002;4.786;2023-08-20T00:54:28;21.90;99.90
21039;DHT22;10678;51.002;4.786;2023-08-20T00:56:54;21.90;99.90
21039;DHT22;10678;51.002;4.786;2023-08-20T00:59:20;22.00;99.90
21039;DHT22;10678;51.002;4.786;2023-08-20T01:01:46;22.00;99.90
21039;DHT22;10678;51.002;4.786;2023-08-20T01:04:12;21.90;99.90
21039;DHT22;10678;51.002;4.786;2023-08-20T01:06:46;22.00;99.90
21039;DHT22;10678;51.002;4.786;2023-08-20T01:12:03;22.00;99.90
21039;DHT22;10678;51.002;4.786;2023-08-20T01:14:29;22.00;99.90
21039;DHT22;10678;51.002;4.786;2023-08-20T01:16:55;21.90;99.90
21039;DHT22;10678;51.002;4.786;2023-08-20T01:19:22;21.90;99.90
21039;DHT22;10678;51.002;4.786;2023-08-20T01:30:46;22.00;99.90
21039;DHT22;10678;51.002;4.786;2023-08-20T01:33:13;22.00;99.90
21039;DHT22;10678;51.002;4.786;2023-08-20T01:35:40;22.00;99.90
21039;DHT22;10678;51.002;4.786;2023-08-20T01:38:06;21.90;99.90
21039;DHT22;10678;51.002;4.786;2023-08-20T01:40:33;21.90;99.90
21039;DHT22;10678;51.002;4.786;2023-08-20T01:42:59;21.80;99.90
21039;DHT22;10678;51.002;4.786;2023-08-20T01:45:24;21.80;99.90
21039;DHT22;10678;51.002;4.786;2023-08-20T01:47:51;21.70;99.90
21039;DHT22;10678;51.002;4.786;2023-08-20T01:50:17;21.70;99.90
21039;DHT22;10678;51.002;4.786;2023-08-20T01:52:42;21.70;99.90
21039;DHT22;10678;51.002;4.786;2023-08-20T01:55:08;21.80;99.90
21039;DHT22;10678;51.002;4.786;2023-08-20T01:57:34;21.80;99.90
21039;DHT22;10678;51.002;4.786;2023-08-20T01:59:59;21.80;99.90
21039;DHT22;10678;51.002;4.786;2023-08-20T02:02:25;21.80;99.90
21039;DHT22;10678;51.002;4.786;2023-08-20T02:04:51;21.80;99.90
21039;DHT22;10678;51.002;4.786;2023-08-20T02:07:16;21.70;99.90
21039;DHT22;10678;51.002;4.786;2023-08-20T02:09:42;21.80;99.90
21039;DHT22;10678;51.002;4.786;2023-08-20T02:12:08;21.80;99.90
21039;DHT22;10678;51.002;4.786;2023-08-20T02:14:34;21.80;99.90
21039;DHT22;10678;51.002;4.786;2023-08-20T02:17:04;21.90;99.90
21039;DHT22;10678;51.002;4.786;2023-08-20T02:19:30;21.80;99.90
21039;DHT22;10678;51.002;4.786;2023-08-20T02:21:55;21.80;99.90
21039;DHT22;10678;51.002;4.786;2023-08-20T02:24:21;21.80;99.90
21039;DHT22;10678;51.002;4.786;2023-08-20T02:26:46;21.80;99.90
21039;DHT22;10678;51.002;4.786;2023-08-20T02:29:12;21.80;99.90
21039;DHT22;10678;51.002;4.786;2023-08-20T02:31:38;21.80;99.90
21039;DHT22;10678;51.002;4.786;2023-08-20T02:34:03;21.80;99.90
21039;DHT22;10678;51.002;4.786;2023-08-20T02:36:29;21.80;99.90
21039;DHT22;10678;51.002;4.786;2023-08-20T02:38:55;21.80;99.90
21039;DHT22;10678;51.002;4.786;2023-08-20T02:41:20;21.50;99.90
21039;DHT22;10678;51.002;4.786;2023-08-20T02:43:46;21.40;99.90
21039;DHT22;10678;51.002;4.786;2023-08-20T02:46:11;21.40;99.90
21039;DHT22;10678;51.002;4.786;2023-08-20T02:48:37;21.50;99.90
21039;DHT22;10678;51.002;4.786;2023-08-20T02:51:03;21.50;99.90
21039;DHT22;10678;51.002;4.786;2023-08-20T02:53:29;21.50;99.90
21039;DHT22;10678;51.002;4.786;2023-08-20T02:55:54;21.40;99.90
21039;DHT22;10678;51.002;4.786;2023-08-20T02:58:21;21.30;99.90
21039;DHT22;10678;51.002;4.786;2023-08-20T03:00:47;21.30;99.90
21039;DHT22;10678;51.002;4.786;2023-08-20T03:03:12;21.30;99.90
21039;DHT22;10678;51.002;4.786;2023-08-20T03:05:38;21.10;99.90
21039;DHT22;10678;51.002;4.786;2023-08-20T03:08:04;21.20;99.90
21039;DHT22;10678;51.002;4.786;2023-08-20T03:10:31;21.10;99.90
21039;DHT22;10678;51.002;4.786;2023-08-20T03:13:00;21.10;99.90
21039;DHT22;10678;51.002;4.786;2023-08-20T03:15:27;21.10;99.90
21039;DHT22;10678;51.002;4.786;2023-08-20T03:17:53;21.10;99.90
21039;DHT22;10678;51.002;4.786;2023-08-20T03:20:18;20.90;99.90
21039;DHT22;10678;51.002;4.786;2023-08-20T03:22:44;20.90;99.90
21039;DHT22;10678;51.002;4.786;2023-08-20T03:25:09;20.90;99.90
21039;DHT22;10678;51.002;4.786;2023-08-20T03:27:35;20.90;99.90
21039;DHT22;10678;51.002;4.786;2023-08-20T03:30:02;20.90;99.90
21039;DHT22;10678;51.002;4.786;2023-08-20T03:32:28;20.80;99.90
21039;DHT22;10678;51.002;4.786;2023-08-20T03:34:53;20.90;99.90
21039;DHT22;10678;51.002;4.786;2023-08-20T03:37:21;20.80;99.90
21039;DHT22;10678;51.002;4.786;2023-08-20T03:39:47;20.80;99.90
21039;DHT22;10678;51.002;4.786;2023-08-20T03:42:13;20.80;99.90
21039;DHT22;10678;51.002;4.786;2023-08-20T03:44:39;20.80;99.90
21039;DHT22;10678;51.002;4.786;2023-08-20T03:47:04;20.90;99.90
21039;DHT22;10678;51.002;4.786;2023-08-20T03:49:30;20.80;99.90
21039;DHT22;10678;51.002;4.786;2023-08-20T03:51:56;20.70;99.90
21039;DHT22;10678;51.002;4.786;2023-08-20T03:54:21;20.70;99.90
21039;DHT22;10678;51.002;4.786;2023-08-20T03:56:47;20.80;99.90
21039;DHT22;10678;51.002;4.786;2023-08-20T03:59:13;20.80;99.90
21039;DHT22;10678;51.002;4.786;2023-08-20T04:01:39;20.80;99.90
21039;DHT22;10678;51.002;4.786;2023-08-20T04:04:05;20.80;99.90
21039;DHT22;10678;51.002;4.786;2023-08-20T04:06:30;20.80;99.90
21039;DHT22;10678;51.002;4.786;2023-08-20T04:08:56;20.80;99.90
21039;DHT22;10678;51.002;4.786;2023-08-20T04:11:22;20.80;99.90
21039;DHT22;10678;51.002;4.786;2023-08-20T04:13:47;20.70;99.90
21039;DHT22;10678;51.002;4.786;2023-08-20T04:16:13;20.70;99.90
21039;DHT22;10678;51.002;4.786;2023-08-20T04:18:39;20.80;99.90
21039;DHT22;10678;51.002;4.786;2023-08-20T04:21:05;20.80;99.90
21039;DHT22;10678;51.002;4.786;2023-08-20T04:23:31;20.80;99.90
21039;DHT22;10678;51.002;4.786;2023-08-20T04:25:56;20.70;99.90
21039;DHT22;10678;51.002;4.786;2023-08-20T04:28:22;20.70;99.90
21039;DHT22;10678;51.002;4.786;2023-08-20T04:30:48;20.80;99.90
21039;DHT22;10678;51.002;4.786;2023-08-20T04:33:14;20.70;99.90
21039;DHT22;10678;51.002;4.786;2023-08-20T04:35:40;20.60;99.90
21039;DHT22;10678;51.002;4.786;2023-08-20T04:38:05;20.60;99.90
21039;DHT22;10678;51.002;4.786;2023-08-20T04:40:31;20.40;99.90
21039;DHT22;10678;51.002;4.786;2023-08-20T04:42:57;20.50;99.90
21039;DHT22;10678;51.002;4.786;2023-08-20T04:45:22;20.40;99.90
21039;DHT22;10678;51.002;4.786;2023-08-20T04:47:48;20.30;99.90
21039;DHT22;10678;51.002;4.786;2023-08-20T04:50:13;20.10;99.90
21039;DHT22;10678;51.002;4.786;2023-08-20T04:52:40;20.20;99.90
21039;DHT22;10678;51.002;4.786;2023-08-20T04:55:06;20.30;99.90
21039;DHT22;10678;51.002;4.786;2023-08-20T04:57:32;20.30;99.90
21039;DHT22;10678;51.002;4.786;2023-08-20T04:59:58;20.30;99.90
21039;DHT22;10678;51.002;4.786;2023-08-20T05:02:23;20.30;99.90
21039;DHT22;10678;51.002;4.786;2023-08-20T05:04:49;20.40;99.90
21039;DHT22;10678;51.002;4.786;2023-08-20T05:07:15;20.40;99.90
21039;DHT22;10678;51.002;4.786;2023-08-20T05:09:41;20.20;99.90
21039;DHT22;10678;51.002;4.786;2023-08-20T05:12:07;20.10;99.90
21039;DHT22;10678;51.002;4.786;2023-08-20T05:14:32;20.20;99.90
21039;DHT22;10678;51.002;4.786;2023-08-20T05:16:58;20.30;99.90
21039;DHT22;10678;51.002;4.786;2023-08-20T05:19:24;20.30;99.90
21039;DHT22;10678;51.002;4.786;2023-08-20T05:21:49;20.30;99.90
21039;DHT22;10678;51.002;4.786;2023-08-20T05:24:15;20.30;99.90
21039;DHT22;10678;51.002;4.786;2023-08-20T05:26:41;20.30;99.90
21039;DHT22;10678;51.002;4.786;2023-08-20T05:29:06;20.20;99.90
21039;DHT22;10678;51.002;4.786;2023-08-20T05:31:32;20.20;99.90
21039;DHT22;10678;51.002;4.786;2023-08-20T05:33:57;20.00;99.90
21039;DHT22;10678;51.002;4.786;2023-08-20T05:36:23;20.10;99.90
21039;DHT22;10678;51.002;4.786;2023-08-20T05:38:49;20.10;99.90
21039;DHT22;10678;51.002;4.786;2023-08-20T05:41:15;20.10;99.90
21039;DHT22;10678;51.002;4.786;2023-08-20T05:43:40;20.20;99.90
21039;DHT22;10678;51.002;4.786;2023-08-20T05:46:06;20.20;99.90
21039;DHT22;10678;51.002;4.786;2023-08-20T05:48:32;20.20;99.90
21039;DHT22;10678;51.002;4.786;2023-08-20T05:50:57;20.20;99.90
21039;DHT22;10678;51.002;4.786;2023-08-20T05:53:23;20.10;99.90
21039;DHT22;10678;51.002;4.786;2023-08-20T05:55:49;20.10;99.90
21039;DHT22;10678;51.002;4.786;2023-08-20T05:58:14;20.10;99.90
21039;DHT22;10678;51.002;4.786;2023-08-20T06:00:40;20.20;99.90
21039;DHT22;10678;51.002;4.786;2023-08-20T06:03:06;20.20;99.90
21039;DHT22;10678;51.002;4.786;2023-08-20T06:05:36;20.20;99.90
21039;DHT22;10678;51.002;4.786;2023-08-20T06:08:02;20.30;99.90
21039;DHT22;10678;51.002;4.786;2023-08-20T06:10:27;20.40;99.90
21039;DHT22;10678;51.002;4.786;2023-08-20T06:12:53;20.40;99.90
21039;DHT22;10678;51.002;4.786;2023-08-20T06:15:19;20.40;99.90
21039;DHT22;10678;51.002;4.786;2023-08-20T06:17:45;20.40;99.90
21039;DHT22;10678;51.002;4.786;2023-08-20T06:20:11;20.50;99.90
21039;DHT22;10678;51.002;4.786;2023-08-20T06:22:37;20.50;99.90
21039;DHT22;10678;51.002;4.786;2023-08-20T06:25:04;20.60;99.90
21039;DHT22;10678;51.002;4.786;2023-08-20T06:27:30;20.70;99.90
21039;DHT22;10678;51.002;4.786;2023-08-20T06:29:56;20.80;99.90
21039;DHT22;10678;51.002;4.786;2023-08-20T06:32:22;21.00;99.90
21039;DHT22;10678;51.002;4.786;2023-08-20T06:34:48;21.30;99.90
21039;DHT22;10678;51.002;4.786;2023-08-20T06:37:13;21.60;99.90
21039;DHT22;10678;51.002;4.786;2023-08-20T06:39:39;21.90;99.90
21039;DHT22;10678;51.002;4.786;2023-08-20T06:42:05;22.10;99.90
21039;DHT22;10678;51.002;4.786;2023-08-20T06:44:30;22.10;99.90
21039;DHT22;10678;51.002;4.786;2023-08-20T06:46:56;22.10;99.90
21039;DHT22;10678;51.002;4.786;2023-08-20T06:49:22;22.00;99.90
21039;DHT22;10678;51.002;4.786;2023-08-20T06:51:47;22.00;99.90
21039;DHT22;10678;51.002;4.786;2023-08-20T06:54:15;21.90;99.90
21039;DHT22;10678;51.002;4.786;2023-08-20T06:56:41;21.90;99.90
21039;DHT22;10678;51.002;4.786;2023-08-20T06:59:07;21.90;99.90
21039;DHT22;10678;51.002;4.786;2023-08-20T07:01:33;22.00;99.90
21039;DHT22;10678;51.002;4.786;2023-08-20T07:03:59;22.00;99.90
21039;DHT22;10678;51.002;4.786;2023-08-20T07:06:24;21.90;99.90
21039;DHT22;10678;51.002;4.786;2023-08-20T07:08:50;21.90;99.90
21039;DHT22;10678;51.002;4.786;2023-08-20T07:11:16;21.90;99.90
21039;DHT22;10678;51.002;4.786;2023-08-20T07:13:41;21.90;99.90
21039;DHT22;10678;51.002;4.786;2023-08-20T07:16:07;21.90;99.90
21039;DHT22;10678;51.002;4.786;2023-08-20T07:18:33;21.90;99.90
21039;DHT22;10678;51.002;4.786;2023-08-20T07:20:58;21.80;99.90
21039;DHT22;10678;51.002;4.786;2023-08-20T07:23:24;21.90;99.90
21039;DHT22;10678;51.002;4.786;2023-08-20T07:25:50;21.90;99.90
21039;DHT22;10678;51.002;4.786;2023-08-20T07:28:17;21.90;99.90
21039;DHT22;10678;51.002;4.786;2023-08-20T07:30:52;22.00;99.90
21039;DHT22;10678;51.002;4.786;2023-08-20T07:33:17;22.00;99.90
21039;DHT22;10678;51.002;4.786;2023-08-20T07:35:43;22.20;99.90
21039;DHT22;10678;51.002;4.786;2023-08-20T07:38:09;22.30;99.90
21039;DHT22;10678;51.002;4.786;2023-08-20T07:40:34;22.60;99.90
21039;DHT22;10678;51.002;4.786;2023-08-20T07:43:00;22.90;99.90
21039;DHT22;10678;51.002;4.786;2023-08-20T07:45:26;23.40;99.90
21039;DHT22;10678;51.002;4.786;2023-08-20T07:47:51;24.00;99.90
21039;DHT22;10678;51.002;4.786;2023-08-20T07:50:17;24.70;99.90
21039;DHT22;10678;51.002;4.786;2023-08-20T07:52:43;25.10;99.90
21039;DHT22;10678;51.002;4.786;2023-08-20T07:55:08;25.70;99.90
21039;DHT22;10678;51.002;4.786;2023-08-20T07:57:34;26.20;99.90
21039;DHT22;10678;51.002;4.786;2023-08-20T07:59:59;26.60;99.90
21039;DHT22;10678;51.002;4.786;2023-08-20T08:02:25;27.00;99.90
21039;DHT22;10678;51.002;4.786;2023-08-20T08:04:51;27.40;99.90
21039;DHT22;10678;51.002;4.786;2023-08-20T08:07:16;27.90;99.90
21039;DHT22;10678;51.002;4.786;2023-08-20T08:09:42;28.40;99.90
21039;DHT22;10678;51.002;4.786;2023-08-20T08:12:07;28.80;99.90
21039;DHT22;10678;51.002;4.786;2023-08-20T08:14:33;29.30;99.90
21039;DHT22;10678;51.002;4.786;2023-08-20T08:16:59;29.80;99.90
21039;DHT22;10678;51.002;4.786;2023-08-20T08:19:24;30.40;99.90
21039;DHT22;10678;51.002;4.786;2023-08-20T08:21:51;31.00;99.90
21039;DHT22;10678;51.002;4.786;2023-08-20T08:24:17;31.50;99.90
21039;DHT22;10678;51.002;4.786;2023-08-20T08:26:42;31.90;99.90
21039;DHT22;10678;51.002;4.786;2023-08-20T08:29:08;32.40;99.90
21039;DHT22;10678;51.002;4.786;2023-08-20T08:31:35;32.60;99.90
21039;DHT22;10678;51.002;4.786;2023-08-20T08:34:01;33.00;99.90
21039;DHT22;10678;51.002;4.786;2023-08-20T08:36:28;33.40;99.90
21039;DHT22;10678;51.002;4.786;2023-08-20T08:38:54;33.80;99.90
21039;DHT22;10678;51.002;4.786;2023-08-20T08:41:22;34.00;99.90
21039;DHT22;10678;51.002;4.786;2023-08-20T08:43:51;34.20;99.90
21039;DHT22;10678;51.002;4.786;2023-08-20T08:46:16;34.40;99.90
21039;DHT22;10678;51.002;4.786;2023-08-20T08:48:44;34.60;99.90
21039;DHT22;10678;51.002;4.786;2023-08-20T08:51:12;34.80;99.90
21039;DHT22;10678;51.002;4.786;2023-08-20T08:53:38;34.90;99.90
21039;DHT22;10678;51.002;4.786;2023-08-20T08:56:04;35.10;99.90
21039;DHT22;10678;51.002;4.786;2023-08-20T08:58:31;35.30;99.90
21039;DHT22;10678;51.002;4.786;2023-08-20T09:00:57;35.40;99.90
21039;DHT22;10678;51.002;4.786;2023-08-20T09:03:23;35.50;99.90
21039;DHT22;10678;51.002;4.786;2023-08-20T09:05:54;35.80;99.90
21039;DHT22;10678;51.002;4.786;2023-08-20T09:08:28;35.60;96.10
21039;DHT22;10678;51.002;4.786;2023-08-20T09:10:55;35.60;95.70
21039;DHT22;10678;51.002;4.786;2023-08-20T09:13:35;35.50;98.60
21039;DHT22;10678;51.002;4.786;2023-08-20T09:16:11;35.60;97.50
21039;DHT22;10678;51.002;4.786;2023-08-20T09:18:38;35.80;98.60
21039;DHT22;10678;51.002;4.786;2023-08-20T09:21:09;36.00;95.10
21039;DHT22;10678;51.002;4.786;2023-08-20T09:23:35;36.00;96.80
21039;DHT22;10678;51.002;4.786;2023-08-20T09:26:02;36.00;98.20
21039;DHT22;10678;51.002;4.786;2023-08-20T09:28:50;35.90;97.80
21039;DHT22;10678;51.002;4.786;2023-08-20T09:31:16;36.00;98.40
21039;DHT22;10678;51.002;4.786;2023-08-20T09:33:52;36.00;96.60
21039;DHT22;10678;51.002;4.786;2023-08-20T09:36:28;36.10;98.00
21039;DHT22;10678;51.002;4.786;2023-08-20T09:38:54;36.10;98.50
21039;DHT22;10678;51.002;4.786;2023-08-20T09:41:22;36.00;97.80
21039;DHT22;10678;51.002;4.786;2023-08-20T09:43:48;36.00;94.40
21039;DHT22;10678;51.002;4.786;2023-08-20T09:46:19;36.00;96.10
21039;DHT22;10678;51.002;4.786;2023-08-20T09:48:48;36.10;96.60
21039;DHT22;10678;51.002;4.786;2023-08-20T09:51:19;36.20;95.80
21039;DHT22;10678;51.002;4.786;2023-08-20T09:53:59;36.30;95.50
21039;DHT22;10678;51.002;4.786;2023-08-20T09:56:30;35.80;94.80
21039;DHT22;10678;51.002;4.786;2023-08-20T09:58:57;36.00;94.90
21039;DHT22;10678;51.002;4.786;2023-08-20T10:01:25;36.00;94.10
21039;DHT22;10678;51.002;4.786;2023-08-20T10:03:50;36.10;92.50
21039;DHT22;10678;51.002;4.786;2023-08-20T10:06:17;36.20;90.50
21039;DHT22;10678;51.002;4.786;2023-08-20T10:08:44;36.20;91.70
21039;DHT22;10678;51.002;4.786;2023-08-20T10:11:12;36.30;91.50
21039;DHT22;10678;51.002;4.786;2023-08-20T10:13:38;36.50;92.00
21039;DHT22;10678;51.002;4.786;2023-08-20T10:16:04;36.70;95.30
21039;DHT22;10678;51.002;4.786;2023-08-20T10:18:29;37.00;92.60
21039;DHT22;10678;51.002;4.786;2023-08-20T10:20:58;37.00;92.80
21039;DHT22;10678;51.002;4.786;2023-08-20T10:23:24;37.20;91.90
21039;DHT22;10678;51.002;4.786;2023-08-20T10:25:52;37.40;91.20
21039;DHT22;10678;51.002;4.786;2023-08-20T10:28:22;37.40;88.50
21039;DHT22;10678;51.002;4.786;2023-08-20T10:31:10;37.50;90.40
21039;DHT22;10678;51.002;4.786;2023-08-20T10:33:50;37.50;84.30
21039;DHT22;10678;51.002;4.786;2023-08-20T10:36:21;37.60;86.70
21039;DHT22;10678;51.002;4.786;2023-08-20T10:38:56;37.30;83.60
21039;DHT22;10678;51.002;4.786;2023-08-20T10:41:27;37.10;88.00
21039;DHT22;10678;51.002;4.786;2023-08-20T10:43:57;37.30;87.70
21039;DHT22;10678;51.002;4.786;2023-08-20T10:46:24;37.40;90.40
21039;DHT22;10678;51.002;4.786;2023-08-20T10:48:51;37.00;88.00
21039;DHT22;10678;51.002;4.786;2023-08-20T10:51:36;37.10;82.70
21039;DHT22;10678;51.002;4.786;2023-08-20T10:59:26;37.70;87.00
21039;DHT22;10678;51.002;4.786;2023-08-20T11:01:59;38.00;85.10
21039;DHT22;10678;51.002;4.786;2023-08-20T11:04:28;37.70;81.90
21039;DHT22;10678;51.002;4.786;2023-08-20T11:06:56;37.60;83.40
21039;DHT22;10678;51.002;4.786;2023-08-20T11:09:27;37.50;84.40
21039;DHT22;10678;51.002;4.786;2023-08-20T11:11:52;37.50;83.90
21039;DHT22;10678;51.002;4.786;2023-08-20T11:14:19;37.80;84.30
21039;DHT22;10678;51.002;4.786;2023-08-20T11:16:45;37.70;84.40
21039;DHT22;10678;51.002;4.786;2023-08-20T11:19:12;37.60;84.90
21039;DHT22;10678;51.002;4.786;2023-08-20T11:21:39;37.50;85.60
21039;DHT22;10678;51.002;4.786;2023-08-20T11:24:06;37.60;89.60
21039;DHT22;10678;51.002;4.786;2023-08-20T11:26:37;37.20;86.90
21039;DHT22;10678;51.002;4.786;2023-08-20T11:29:07;37.30;86.00
21039;DHT22;10678;51.002;4.786;2023-08-20T11:31:34;37.50;84.10
21039;DHT22;10678;51.002;4.786;2023-08-20T11:34:02;37.90;87.00
21039;DHT22;10678;51.002;4.786;2023-08-20T11:36:28;38.20;89.70
21039;DHT22;10678;51.002;4.786;2023-08-20T11:38:54;38.40;84.80
21039;DHT22;10678;51.002;4.786;2023-08-20T11:41:21;38.40;84.70
21039;DHT22;10678;51.002;4.786;2023-08-20T11:43:47;38.50;78.70
21039;DHT22;10678;51.002;4.786;2023-08-20T11:46:14;38.50;76.30
21039;DHT22;10678;51.002;4.786;2023-08-20T11:49:02;38.30;76.80
21039;DHT22;10678;51.002;4.786;2023-08-20T11:54:14;38.30;82.10
21039;DHT22;10678;51.002;4.786;2023-08-20T11:56:47;38.30;81.80
21039;DHT22;10678;51.002;4.786;2023-08-20T11:59:14;38.40;80.70
21039;DHT22;10678;51.002;4.786;2023-08-20T12:01:40;38.40;79.80
21039;DHT22;10678;51.002;4.786;2023-08-20T12:04:08;38.50;79.90
21039;DHT22;10678;51.002;4.786;2023-08-20T12:06:36;38.70;76.00
21039;DHT22;10678;51.002;4.786;2023-08-20T12:09:21;38.90;81.90
21039;DHT22;10678;51.002;4.786;2023-08-20T12:11:54;38.90;82.80
21039;DHT22;10678;51.002;4.786;2023-08-20T12:14:23;38.90;78.70
21039;DHT22;10678;51.002;4.786;2023-08-20T12:16:49;39.20;82.60
21039;DHT22;10678;51.002;4.786;2023-08-20T12:19:16;39.30;81.90
21039;DHT22;10678;51.002;4.786;2023-08-20T12:21:42;38.40;78.40
21039;DHT22;10678;51.002;4.786;2023-08-20T12:24:09;37.90;79.70
21039;DHT22;10678;51.002;4.786;2023-08-20T12:26:36;38.40;81.40
21039;DHT22;10678;51.002;4.786;2023-08-20T12:29:01;38.70;82.70
21039;DHT22;10678;51.002;4.786;2023-08-20T12:31:27;38.80;83.70
21039;DHT22;10678;51.002;4.786;2023-08-20T12:33:53;38.90;82.90
21039;DHT22;10678;51.002;4.786;2023-08-20T12:36:18;39.30;83.30
21039;DHT22;10678;51.002;4.786;2023-08-20T12:38:44;39.40;81.70
21039;DHT22;10678;51.002;4.786;2023-08-20T12:41:10;39.70;79.10
21039;DHT22;10678;51.002;4.786;2023-08-20T12:43:35;39.90;78.70
21039;DHT22;10678;51.002;4.786;2023-08-20T12:46:01;39.70;81.30
21039;DHT22;10678;51.002;4.786;2023-08-20T12:48:27;39.90;80.70
21039;DHT22;10678;51.002;4.786;2023-08-20T12:50:53;39.80;77.90
21039;DHT22;10678;51.002;4.786;2023-08-20T12:53:19;40.10;80.50
21039;DHT22;10678;51.002;4.786;2023-08-20T12:55:45;40.10;81.40
21039;DHT22;10678;51.002;4.786;2023-08-20T12:58:10;40.10;80.00
21039;DHT22;10678;51.002;4.786;2023-08-20T13:00:36;40.00;80.90
21039;DHT22;10678;51.002;4.786;2023-08-20T13:03:02;40.10;79.40
21039;DHT22;10678;51.002;4.786;2023-08-20T13:05:28;40.40;79.20
21039;DHT22;10678;51.002;4.786;2023-08-20T13:07:54;40.60;80.40
21039;DHT22;10678;51.002;4.786;2023-08-20T13:10:20;40.70;79.00
21039;DHT22;10678;51.002;4.786;2023-08-20T13:12:53;40.60;76.00
21039;DHT22;10678;51.002;4.786;2023-08-20T13:15:20;40.50;75.60
21039;DHT22;10678;51.002;4.786;2023-08-20T13:17:49;40.30;77.90
21039;DHT22;10678;51.002;4.786;2023-08-20T13:20:15;40.40;78.40
21039;DHT22;10678;51.002;4.786;2023-08-20T13:22:46;40.30;73.60
21039;DHT22;10678;51.002;4.786;2023-08-20T13:25:12;40.30;75.00
21039;DHT22;10678;51.002;4.786;2023-08-20T13:27:38;40.10;74.90
21039;DHT22;10678;51.002;4.786;2023-08-20T13:30:04;39.70;72.90
21039;DHT22;10678;51.002;4.786;2023-08-20T13:32:30;39.70;76.00
21039;DHT22;10678;51.002;4.786;2023-08-20T13:34:56;39.60;78.30
21039;DHT22;10678;51.002;4.786;2023-08-20T13:37:22;39.90;77.90
21039;DHT22;10678;51.002;4.786;2023-08-20T13:39:47;39.70;77.40
21039;DHT22;10678;51.002;4.786;2023-08-20T13:42:13;39.30;76.40
21039;DHT22;10678;51.002;4.786;2023-08-20T13:44:38;39.00;78.10
21039;DHT22;10678;51.002;4.786;2023-08-20T13:47:04;38.80;79.20
21039;DHT22;10678;51.002;4.786;2023-08-20T13:49:30;38.40;76.40
21039;DHT22;10678;51.002;4.786;2023-08-20T13:51:55;38.10;80.50
21039;DHT22;10678;51.002;4.786;2023-08-20T13:54:21;37.80;80.20
21039;DHT22;10678;51.002;4.786;2023-08-20T13:56:46;37.30;82.60
21039;DHT22;10678;51.002;4.786;2023-08-20T13:59:12;36.60;82.70
21039;DHT22;10678;51.002;4.786;2023-08-20T14:01:38;36.60;86.10
21039;DHT22;10678;51.002;4.786;2023-08-20T14:04:03;36.40;83.60
21039;DHT22;10678;51.002;4.786;2023-08-20T14:06:29;36.20;86.30
21039;DHT22;10678;51.002;4.786;2023-08-20T14:08:55;35.20;80.80
21039;DHT22;10678;51.002;4.786;2023-08-20T14:11:21;34.90;85.30
21039;DHT22;10678;51.002;4.786;2023-08-20T14:13:50;34.60;84.20
21039;DHT22;10678;51.002;4.786;2023-08-20T14:16:15;34.10;90.80
21039;DHT22;10678;51.002;4.786;2023-08-20T14:18:41;33.80;93.40
21039;DHT22;10678;51.002;4.786;2023-08-20T14:21:06;33.40;93.30
21039;DHT22;10678;51.002;4.786;2023-08-20T14:23:32;33.30;90.90
21039;DHT22;10678;51.002;4.786;2023-08-20T14:25:58;33.10;91.90
21039;DHT22;10678;51.002;4.786;2023-08-20T14:28:23;32.90;91.70
21039;DHT22;10678;51.002;4.786;2023-08-20T14:30:49;32.80;93.10
21039;DHT22;10678;51.002;4.786;2023-08-20T14:33:20;32.80;92.00
21039;DHT22;10678;51.002;4.786;2023-08-20T14:35:46;32.50;93.70
21039;DHT22;10678;51.002;4.786;2023-08-20T14:38:11;32.30;93.80
21039;DHT22;10678;51.002;4.786;2023-08-20T14:40:39;32.10;94.60
21039;DHT22;10678;51.002;4.786;2023-08-20T14:43:06;32.10;94.90
21039;DHT22;10678;51.002;4.786;2023-08-20T14:45:32;32.10;94.10
21039;DHT22;10678;51.002;4.786;2023-08-20T14:47:57;31.90;94.10
21039;DHT22;10678;51.002;4.786;2023-08-20T14:50:23;31.70;94.40
21039;DHT22;10678;51.002;4.786;2023-08-20T14:52:49;31.50;95.40
21039;DHT22;10678;51.002;4.786;2023-08-20T14:55:18;31.20;97.60
21039;DHT22;10678;51.002;4.786;2023-08-20T14:57:44;31.10;99.90
21039;DHT22;10678;51.002;4.786;2023-08-20T15:00:10;30.90;98.70
21039;DHT22;10678;51.002;4.786;2023-08-20T15:02:40;30.80;97.80
21039;DHT22;10678;51.002;4.786;2023-08-20T15:05:06;30.80;99.20
21039;DHT22;10678;51.002;4.786;2023-08-20T15:07:32;30.70;99.90
21039;DHT22;10678;51.002;4.786;2023-08-20T15:09:57;30.70;99.90
21039;DHT22;10678;51.002;4.786;2023-08-20T15:12:24;30.60;99.90
21039;DHT22;10678;51.002;4.786;2023-08-20T15:14:50;30.60;99.90
21039;DHT22;10678;51.002;4.786;2023-08-20T15:17:15;30.50;99.90
21039;DHT22;10678;51.002;4.786;2023-08-20T15:19:41;30.50;99.90
21039;DHT22;10678;51.002;4.786;2023-08-20T15:22:06;30.50;99.90
21039;DHT22;10678;51.002;4.786;2023-08-20T15:24:32;30.50;99.90
21039;DHT22;10678;51.002;4.786;2023-08-20T15:26:58;30.50;99.90
21039;DHT22;10678;51.002;4.786;2023-08-20T15:29:23;30.60;99.90
21039;DHT22;10678;51.002;4.786;2023-08-20T15:31:49;30.60;99.90
21039;DHT22;10678;51.002;4.786;2023-08-20T15:34:17;30.70;99.90
21039;DHT22;10678;51.002;4.786;2023-08-20T15:36:43;30.60;99.90
21039;DHT22;10678;51.002;4.786;2023-08-20T15:39:09;30.60;99.90
21039;DHT22;10678;51.002;4.786;2023-08-20T15:41:36;30.50;99.90
21039;DHT22;10678;51.002;4.786;2023-08-20T15:44:01;30.40;99.90
21039;DHT22;10678;51.002;4.786;2023-08-20T15:46:27;30.20;99.90